sensor_id;sensor_type;location;lat;lon;timestamp;pressure;altitude;pressure_sealevel;temperature;humidity
32033;BME280;31720;52.638;9.216;2024-02-21T00:02:14;101760.38;;;9.04;100.00
32033;BME280;31720;52.638;9.216;2024-02-21T00:05:15;101743.59;;;9.09;100.00
32033;BME280;31720;52.638;9.216;2024-02-21T00:08:17;101746.09;;;9.12;100.00
32033;BME280;31720;52.638;9.216;2024-02-21T00:11:20;101737.22;;;9.17;100.00
32033;BME280;31720;52.638;9.216;2024-02-21T00:14:22;101732.91;;;9.15;100.00
32033;BME280;31720;52.638;9.216;2024-02-21T00:17:23;101734.09;;;9.05;100.00
32033;BME280;31720;52.638;9.216;2024-02-21T00:20:26;101729.50;;;9.12;100.00
32033;BME280;31720;52.638;9.216;2024-02-21T00:23:27;101720.63;;;9.18;100.00
32033;BME280;31720;52.638;9.216;2024-02-21T00:26:30;101721.63;;;9.12;100.00
32033;BME280;31720;52.638;9.216;2024-02-21T00:29:31;101714.78;;;9.08;100.00
32033;BME280;31720;52.638;9.216;2024-02-21T00:32:34;101709.59;;;9.06;100.00
32033;BME280;31720;52.638;9.216;2024-02-21T00:35:35;101698.16;;;9.09;100.00
32033;BME280;31720;52.638;9.216;2024-02-21T00:38:37;101698.09;;;9.10;100.00
32033;BME280;31720;52.638;9.216;2024-02-21T00:41:39;101701.50;;;9.14;100.00
32033;BME280;31720;52.638;9.216;2024-02-21T00:44:41;101703.34;;;9.10;100.00
32033;BME280;31720;52.638;9.216;2024-02-21T00:47:42;101696.88;;;9.22;100.00
32033;BME280;31720;52.638;9.216;2024-02-21T00:50:43;101686.53;;;9.18;100.00
32033;BME280;31720;52.638;9.216;2024-02-21T00:53:45;101687.25;;;9.21;100.00
32033;BME280;31720;52.638;9.216;2024-02-21T00:56:47;101677.75;;;9.19;100.00
32033;BME280;31720;52.638;9.216;2024-02-21T00:59:49;101682.84;;;9.23;100.00
32033;BME280;31720;52.638;9.216;2024-02-21T01:02:50;101678.34;;;9.27;100.00
32033;BME280;31720;52.638;9.216;2024-02-21T01:05:52;101674.81;;;9.28;100.00
32033;BME280;31720;52.638;9.216;2024-02-21T01:08:53;101678.44;;;9.24;100.00
32033;BME280;31720;52.638;9.216;2024-02-21T01:11:56;101662.91;;;9.18;100.00
32033;BME280;31720;52.638;9.216;2024-02-21T01:14:57;101677.75;;;9.17;100.00
32033;BME280;31720;52.638;9.216;2024-02-21T01:17:58;101667.09;;;9.23;100.00
32033;BME280;31720;52.638;9.216;2024-02-21T01:21:00;101667.94;;;9.24;100.00
32033;BME280;31720;52.638;9.216;2024-02-21T01:24:01;101671.50;;;9.23;100.00
32033;BME280;31720;52.638;9.216;2024-02-21T01:27:04;101669.72;;;9.23;100.00
32033;BME280;31720;52.638;9.216;2024-02-21T01:30:06;101665.41;;;9.21;100.00
32033;BME280;31720;52.638;9.216;2024-02-21T01:33:08;101660.69;;;9.32;100.00
32033;BME280;31720;52.638;9.216;2024-02-21T01:36:09;101665.03;;;9.33;100.00
32033;BME280;31720;52.638;9.216;2024-02-21T01:39:11;101656.53;;;9.25;100.00
32033;BME280;31720;52.638;9.216;2024-02-21T01:42:13;101646.06;;;9.25;100.00
32033;BME280;31720;52.638;9.216;2024-02-21T01:45:15;101644.56;;;9.18;100.00
32033;BME280;31720;52.638;9.216;2024-02-21T01:48:17;101644.34;;;9.24;100.00
32033;BME280;31720;52.638;9.216;2024-02-21T01:51:19;101630.16;;;9.29;100.00
32033;BME280;31720;52.638;9.216;2024-02-21T01:54:20;101633.63;;;9.30;100.00
32033;BME280;31720;52.638;9.216;2024-02-21T01:57:23;101636.88;;;9.38;100.00
32033;BME280;31720;52.638;9.216;2024-02-21T02:00:25;101635.09;;;9.38;100.00
32033;BME280;31720;52.638;9.216;2024-02-21T02:03:26;101628.31;;;9.33;100.00
32033;BME280;31720;52.638;9.216;2024-02-21T02:06:28;101617.50;;;9.42;100.00
32033;BME280;31720;52.638;9.216;2024-02-21T02:09:31;101604.22;;;9.47;100.00
32033;BME280;31720;52.638;9.216;2024-02-21T02:12:34;101614.03;;;9.40;100.00
32033;BME280;31720;52.638;9.216;2024-02-21T02:15:39;101589.75;;;9.35;100.00
32033;BME280;31720;52.638;9.216;2024-02-21T02:18:40;101585.41;;;9.34;100.00
32033;BME280;31720;52.638;9.216;2024-02-21T02:21:46;101584.72;;;9.29;100.00
32033;BME280;31720;52.638;9.216;2024-02-21T02:24:49;101581.09;;;9.33;100.00
32033;BME280;31720;52.638;9.216;2024-02-21T02:27:50;101560.88;;;9.35;100.00
32033;BME280;31720;52.638;9.216;2024-02-21T02:30:52;101565.34;;;9.33;100.00
32033;BME280;31720;52.638;9.216;2024-02-21T02:33:54;101560.88;;;9.35;100.00
32033;BME280;31720;52.638;9.216;2024-02-21T02:36:55;101545.22;;;9.33;100.00
32033;BME280;31720;52.638;9.216;2024-02-21T02:39:58;101539.06;;;9.34;100.00
32033;BME280;31720;52.638;9.216;2024-02-21T02:43:00;101521.53;;;9.35;100.00
32033;BME280;31720;52.638;9.216;2024-02-21T02:46:01;101513.84;;;9.30;100.00
32033;BME280;31720;52.638;9.216;2024-02-21T02:49:02;101510.25;;;9.33;100.00
32033;BME280;31720;52.638;9.216;2024-02-21T02:52:04;101508.31;;;9.38;100.00
32033;BME280;31720;52.638;9.216;2024-02-21T02:55:07;101509.13;;;9.40;100.00
32033;BME280;31720;52.638;9.216;2024-02-21T02:58:09;101507.81;;;9.28;100.00
32033;BME280;31720;52.638;9.216;2024-02-21T03:01:10;101487.25;;;9.41;100.00
32033;BME280;31720;52.638;9.216;2024-02-21T03:04:11;101490.72;;;9.42;100.00
32033;BME280;31720;52.638;9.216;2024-02-21T03:07:14;101478.72;;;9.34;100.00
32033;BME280;31720;52.638;9.216;2024-02-21T03:10:16;101469.94;;;9.35;100.00
32033;BME280;31720;52.638;9.216;2024-02-21T03:13:18;101467.66;;;9.26;100.00
32033;BME280;31720;52.638;9.216;2024-02-21T03:16:19;101465.03;;;9.26;100.00
32033;BME280;31720;52.638;9.216;2024-02-21T03:19:20;101453.69;;;9.26;100.00
32033;BME280;31720;52.638;9.216;2024-02-21T03:22:22;101466.63;;;9.30;100.00
32033;BME280;31720;52.638;9.216;2024-02-21T03:25:25;101489.53;;;9.25;100.00
32033;BME280;31720;52.638;9.216;2024-02-21T03:28:26;101479.34;;;9.18;100.00
32033;BME280;31720;52.638;9.216;2024-02-21T03:31:27;101490.53;;;9.23;100.00
32033;BME280;31720;52.638;9.216;2024-02-21T03:34:29;101503.06;;;9.14;100.00
32033;BME280;31720;52.638;9.216;2024-02-21T03:37:30;101499.56;;;9.14;100.00
32033;BME280;31720;52.638;9.216;2024-02-21T03:40:33;101502.28;;;9.11;100.00
32033;BME280;31720;52.638;9.216;2024-02-21T03:43:34;101501.22;;;9.17;100.00
32033;BME280;31720;52.638;9.216;2024-02-21T03:46:36;101497.88;;;9.13;100.00
32033;BME280;31720;52.638;9.216;2024-02-21T03:49:37;101515.41;;;9.11;100.00
32033;BME280;31720;52.638;9.216;2024-02-21T03:52:38;101521.41;;;9.14;100.00
32033;BME280;31720;52.638;9.216;2024-02-21T03:55:41;101532.00;;;9.11;100.00
32033;BME280;31720;52.638;9.216;2024-02-21T03:58:42;101526.41;;;9.22;100.00
32033;BME280;31720;52.638;9.216;2024-02-21T04:01:44;101520.22;;;9.23;100.00
32033;BME280;31720;52.638;9.216;2024-02-21T04:04:45;101517.88;;;9.15;100.00
32033;BME280;31720;52.638;9.216;2024-02-21T04:07:48;101523.94;;;9.18;100.00
32033;BME280;31720;52.638;9.216;2024-02-21T04:10:50;101514.28;;;9.18;100.00
32033;BME280;31720;52.638;9.216;2024-02-21T04:13:51;101517.78;;;9.19;100.00
32033;BME280;31720;52.638;9.216;2024-02-21T04:16:53;101516.00;;;9.19;100.00
32033;BME280;31720;52.638;9.216;2024-02-21T04:20:02;101512.56;;;9.17;100.00
32033;BME280;31720;52.638;9.216;2024-02-21T04:23:05;101505.75;;;9.13;100.00
32033;BME280;31720;52.638;9.216;2024-02-21T04:26:08;101501.59;;;9.06;100.00
32033;BME280;31720;52.638;9.216;2024-02-21T04:29:09;101505.91;;;9.08;100.00
32033;BME280;31720;52.638;9.216;2024-02-21T04:32:10;101498.44;;;8.96;100.00
32033;BME280;31720;52.638;9.216;2024-02-21T04:35:12;101496.16;;;8.87;100.00
32033;BME280;31720;52.638;9.216;2024-02-21T04:38:13;101499.72;;;8.84;100.00
32033;BME280;31720;52.638;9.216;2024-02-21T04:41:16;101502.34;;;8.84;100.00
32033;BME280;31720;52.638;9.216;2024-02-21T04:44:17;101509.41;;;8.82;100.00
32033;BME280;31720;52.638;9.216;2024-02-21T04:47:21;101502.81;;;8.71;100.00
32033;BME280;31720;52.638;9.216;2024-02-21T04:50:23;101496.78;;;8.69;100.00
32033;BME280;31720;52.638;9.216;2024-02-21T04:53:25;101497.84;;;8.63;100.00
32033;BME280;31720;52.638;9.216;2024-02-21T04:56:27;101489.91;;;8.64;100.00
32033;BME280;31720;52.638;9.216;2024-02-21T04:59:29;101494.09;;;8.70;100.00
32033;BME280;31720;52.638;9.216;2024-02-21T05:02:30;101492.38;;;8.69;100.00
32033;BME280;31720;52.638;9.216;2024-02-21T05:05:31;101495.59;;;8.77;100.00
32033;BME280;31720;52.638;9.216;2024-02-21T05:08:33;101494.69;;;8.78;100.00
32033;BME280;31720;52.638;9.216;2024-02-21T05:11:36;101488.75;;;8.73;100.00
32033;BME280;31720;52.638;9.216;2024-02-21T05:14:37;101494.78;;;8.75;100.00
32033;BME280;31720;52.638;9.216;2024-02-21T05:17:39;101489.50;;;8.77;100.00
32033;BME280;31720;52.638;9.216;2024-02-21T05:20:40;101484.97;;;8.82;100.00
32033;BME280;31720;52.638;9.216;2024-02-21T05:23:41;101482.22;;;8.85;100.00
32033;BME280;31720;52.638;9.216;2024-02-21T05:26:44;101478.91;;;8.80;100.00
32033;BME280;31720;52.638;9.216;2024-02-21T05:29:46;101481.69;;;8.75;100.00
32033;BME280;31720;52.638;9.216;2024-02-21T05:32:48;101485.22;;;8.74;100.00
32033;BME280;31720;52.638;9.216;2024-02-21T05:35:50;101484.31;;;8.75;100.00
32033;BME280;31720;52.638;9.216;2024-02-21T05:38:51;101482.75;;;8.70;100.00
32033;BME280;31720;52.638;9.216;2024-02-21T05:41:54;101480.88;;;8.73;100.00
32033;BME280;31720;52.638;9.216;2024-02-21T05:44:55;101472.91;;;8.76;100.00
32033;BME280;31720;52.638;9.216;2024-02-21T05:47:56;101469.50;;;8.74;100.00
32033;BME280;31720;52.638;9.216;2024-02-21T05:50:58;101459.97;;;8.72;100.00
32033;BME280;31720;52.638;9.216;2024-02-21T05:53:59;101460.41;;;8.84;100.00
32033;BME280;31720;52.638;9.216;2024-02-21T05:57:02;101466.94;;;8.73;100.00
32033;BME280;31720;52.638;9.216;2024-02-21T06:00:05;101463.00;;;8.86;100.00
32033;BME280;31720;52.638;9.216;2024-02-21T06:03:06;101464.78;;;8.84;100.00
32033;BME280;31720;52.638;9.216;2024-02-21T06:06:08;101457.25;;;8.75;100.00
32033;BME280;31720;52.638;9.216;2024-02-21T06:09:09;101457.19;;;8.76;100.00
32033;BME280;31720;52.638;9.216;2024-02-21T06:12:12;101452.09;;;8.72;100.00
32033;BME280;31720;52.638;9.216;2024-02-21T06:15:13;101455.75;;;8.68;100.00
32033;BME280;31720;52.638;9.216;2024-02-21T06:18:15;101457.56;;;8.66;100.00
32033;BME280;31720;52.638;9.216;2024-02-21T06:21:16;101448.78;;;8.67;100.00
32033;BME280;31720;52.638;9.216;2024-02-21T06:24:17;101452.47;;;8.61;100.00
32033;BME280;31720;52.638;9.216;2024-02-21T06:27:20;101447.28;;;8.59;100.00
32033;BME280;31720;52.638;9.216;2024-02-21T06:30:21;101449.16;;;8.81;100.00
32033;BME280;31720;52.638;9.216;2024-02-21T06:33:23;101442.22;;;8.80;100.00
32033;BME280;31720;52.638;9.216;2024-02-21T06:36:24;101441.28;;;8.81;100.00
32033;BME280;31720;52.638;9.216;2024-02-21T06:39:26;101443.13;;;8.79;100.00
32033;BME280;31720;52.638;9.216;2024-02-21T06:42:30;101436.81;;;8.84;100.00
32033;BME280;31720;52.638;9.216;2024-02-21T06:45:31;101441.09;;;8.87;100.00
32033;BME280;31720;52.638;9.216;2024-02-21T06:48:33;101445.59;;;8.83;100.00
32033;BME280;31720;52.638;9.216;2024-02-21T06:51:34;101444.03;;;8.78;100.00
32033;BME280;31720;52.638;9.216;2024-02-21T06:54:37;101450.06;;;8.80;100.00
32033;BME280;31720;52.638;9.216;2024-02-21T06:57:41;101442.59;;;8.69;100.00
32033;BME280;31720;52.638;9.216;2024-02-21T07:00:43;101452.16;;;8.70;100.00
32033;BME280;31720;52.638;9.216;2024-02-21T07:03:44;101451.06;;;8.77;100.00
32033;BME280;31720;52.638;9.216;2024-02-21T07:06:45;101439.75;;;8.75;100.00
32033;BME280;31720;52.638;9.216;2024-02-21T07:09:47;101440.66;;;8.74;100.00
32033;BME280;31720;52.638;9.216;2024-02-21T07:12:50;101444.19;;;8.73;100.00
32033;BME280;31720;52.638;9.216;2024-02-21T07:15:52;101436.34;;;8.73;100.00
32033;BME280;31720;52.638;9.216;2024-02-21T07:18:55;101430.81;;;8.81;100.00
32033;BME280;31720;52.638;9.216;2024-02-21T07:21:56;101434.31;;;8.81;100.00
32033;BME280;31720;52.638;9.216;2024-02-21T07:24:58;101442.91;;;8.85;100.00
32033;BME280;31720;52.638;9.216;2024-02-21T07:28:00;101452.59;;;8.83;100.00
32033;BME280;31720;52.638;9.216;2024-02-21T07:31:03;101453.44;;;8.83;100.00
32033;BME280;31720;52.638;9.216;2024-02-21T07:34:04;101457.75;;;8.86;100.00
32033;BME280;31720;52.638;9.216;2024-02-21T07:37:05;101460.25;;;8.89;100.00
32033;BME280;31720;52.638;9.216;2024-02-21T07:40:12;101452.28;;;8.92;100.00
32033;BME280;31720;52.638;9.216;2024-02-21T07:43:15;101455.69;;;8.94;100.00
32033;BME280;31720;52.638;9.216;2024-02-21T07:46:16;101453.06;;;8.94;100.00
32033;BME280;31720;52.638;9.216;2024-02-21T07:49:17;101453.63;;;9.04;100.00
32033;BME280;31720;52.638;9.216;2024-02-21T07:52:19;101454.50;;;9.03;100.00
32033;BME280;31720;52.638;9.216;2024-02-21T07:55:20;101452.81;;;9.02;100.00
32033;BME280;31720;52.638;9.216;2024-02-21T07:58:23;101452.81;;;9.02;100.00
32033;BME280;31720;52.638;9.216;2024-02-21T08:01:24;101457.09;;;9.04;100.00
32033;BME280;31720;52.638;9.216;2024-02-21T08:04:26;101458.97;;;9.01;100.00
32033;BME280;31720;52.638;9.216;2024-02-21T08:07:27;101462.44;;;9.01;100.00
32033;BME280;31720;52.638;9.216;2024-02-21T08:10:29;101452.81;;;9.02;100.00
32033;BME280;31720;52.638;9.216;2024-02-21T08:13:32;101438.41;;;9.13;100.00
32033;BME280;31720;52.638;9.216;2024-02-21T08:16:33;101448.31;;;9.05;100.00
32033;BME280;31720;52.638;9.216;2024-02-21T08:19:34;101437.59;;;9.11;100.00
32033;BME280;31720;52.638;9.216;2024-02-21T08:22:37;101433.16;;;9.13;100.00
32033;BME280;31720;52.638;9.216;2024-02-21T08:25:38;101428.88;;;9.11;100.00
32033;BME280;31720;52.638;9.216;2024-02-21T08:28:41;101434.88;;;9.14;100.00
32033;BME280;31720;52.638;9.216;2024-02-21T08:31:42;101423.38;;;9.19;100.00
32033;BME280;31720;52.638;9.216;2024-02-21T08:34:43;101418.06;;;9.20;100.00
32033;BME280;31720;52.638;9.216;2024-02-21T08:37:46;101422.03;;;9.30;100.00
32033;BME280;31720;52.638;9.216;2024-02-21T08:40:48;101412.22;;;9.35;100.00
32033;BME280;31720;52.638;9.216;2024-02-21T08:43:51;101407.31;;;9.26;100.00
32033;BME280;31720;52.638;9.216;2024-02-21T08:46:54;101413.16;;;9.34;100.00
32033;BME280;31720;52.638;9.216;2024-02-21T08:49:55;101417.28;;;9.40;100.00
32033;BME280;31720;52.638;9.216;2024-02-21T08:52:56;101407.34;;;9.50;100.00
32033;BME280;31720;52.638;9.216;2024-02-21T08:55:58;101397.69;;;9.50;100.00
32033;BME280;31720;52.638;9.216;2024-02-21T08:59:00;101397.38;;;9.58;100.00
32033;BME280;31720;52.638;9.216;2024-02-21T09:02:02;101386.00;;;9.59;100.00
32033;BME280;31720;52.638;9.216;2024-02-21T09:05:04;101392.13;;;9.58;100.00
32033;BME280;31720;52.638;9.216;2024-02-21T09:08:06;101391.53;;;9.51;100.00
32033;BME280;31720;52.638;9.216;2024-02-21T09:11:08;101380.75;;;9.59;100.00
32033;BME280;31720;52.638;9.216;2024-02-21T09:14:11;101384.06;;;9.62;100.00
32033;BME280;31720;52.638;9.216;2024-02-21T09:17:13;101381.16;;;9.70;100.00
32033;BME280;31720;52.638;9.216;2024-02-21T09:20:15;101381.22;;;9.69;100.00
32033;BME280;31720;52.638;9.216;2024-02-21T09:23:16;101376.03;;;9.67;100.00
32033;BME280;31720;52.638;9.216;2024-02-21T09:26:19;101379.16;;;9.77;100.00
32033;BME280;31720;52.638;9.216;2024-02-21T09:29:22;101375.44;;;9.82;100.00
32033;BME280;31720;52.638;9.216;2024-02-21T09:32:23;101370.22;;;9.81;100.00
32033;BME280;31720;52.638;9.216;2024-02-21T09:35:25;101365.97;;;9.78;100.00
32033;BME280;31720;52.638;9.216;2024-02-21T09:38:26;101364.88;;;9.84;100.00
32033;BME280;31720;52.638;9.216;2024-02-21T09:41:28;101355.16;;;9.86;100.00
32033;BME280;31720;52.638;9.216;2024-02-21T09:44:34;101362.88;;;9.90;100.00
32033;BME280;31720;52.638;9.216;2024-02-21T09:47:43;101351.72;;;10.06;100.00
32033;BME280;31720;52.638;9.216;2024-02-21T09:50:49;101352.94;;;9.97;100.00
32033;BME280;31720;52.638;9.216;2024-02-21T09:53:53;101347.81;;;9.94;100.00
32033;BME280;31720;52.638;9.216;2024-02-21T09:56:55;101356.81;;;9.88;100.00
32033;BME280;31720;52.638;9.216;2024-02-21T09:59:57;101348.72;;;9.93;100.00
32033;BME280;31720;52.638;9.216;2024-02-21T10:03:00;101339.38;;;10.08;100.00
32033;BME280;31720;52.638;9.216;2024-02-21T10:06:02;101331.38;;;10.11;100.00
32033;BME280;31720;52.638;9.216;2024-02-21T10:09:03;101330.13;;;10.20;100.00
32033;BME280;31720;52.638;9.216;2024-02-21T10:12:08;101323.78;;;10.25;100.00
32033;BME280;31720;52.638;9.216;2024-02-21T10:15:11;101324.41;;;10.32;100.00
32033;BME280;31720;52.638;9.216;2024-02-21T10:18:17;101302.69;;;10.47;100.00
32033;BME280;31720;52.638;9.216;2024-02-21T10:21:19;101297.03;;;10.56;100.00
32033;BME280;31720;52.638;9.216;2024-02-21T10:24:26;101298.03;;;10.54;100.00
32033;BME280;31720;52.638;9.216;2024-02-21T10:27:28;101296.50;;;10.48;100.00
32033;BME280;31720;52.638;9.216;2024-02-21T10:30:30;101286.97;;;10.66;100.00
32033;BME280;31720;52.638;9.216;2024-02-21T10:33:32;101274.03;;;10.61;100.00
32033;BME280;31720;52.638;9.216;2024-02-21T10:36:33;101278.75;;;10.74;100.00
32033;BME280;31720;52.638;9.216;2024-02-21T10:39:37;101286.97;;;10.66;100.00
32033;BME280;31720;52.638;9.216;2024-02-21T10:42:39;101273.75;;;10.68;100.00
32033;BME280;31720;52.638;9.216;2024-02-21T10:45:43;101278.22;;;10.65;100.00
32033;BME280;31720;52.638;9.216;2024-02-21T10:48:46;101278.84;;;10.52;100.00
32033;BME280;31720;52.638;9.216;2024-02-21T10:51:48;101292.16;;;10.68;100.00
32033;BME280;31720;52.638;9.216;2024-02-21T10:54:55;101264.03;;;10.70;100.00
32033;BME280;31720;52.638;9.216;2024-02-21T10:57:57;101253.84;;;10.81;100.00
32033;BME280;31720;52.638;9.216;2024-02-21T11:01:02;101252.78;;;10.85;100.00
32033;BME280;31720;52.638;9.216;2024-02-21T11:04:05;101248.88;;;10.93;100.00
32033;BME280;31720;52.638;9.216;2024-02-21T11:07:08;101244.97;;;11.02;100.00
32033;BME280;31720;52.638;9.216;2024-02-21T11:10:20;101235.94;;;10.89;100.00
32033;BME280;31720;52.638;9.216;2024-02-21T11:13:30;101231.84;;;10.83;100.00
32033;BME280;31720;52.638;9.216;2024-02-21T11:16:36;101229.34;;;10.80;100.00
32033;BME280;31720;52.638;9.216;2024-02-21T11:19:39;101222.47;;;10.78;100.00
32033;BME280;31720;52.638;9.216;2024-02-21T11:22:41;101220.66;;;10.97;100.00
32033;BME280;31720;52.638;9.216;2024-02-21T11:25:43;101221.47;;;10.99;100.00
32033;BME280;31720;52.638;9.216;2024-02-21T11:28:44;101217.31;;;10.93;100.00
32033;BME280;31720;52.638;9.216;2024-02-21T11:31:47;101209.31;;;10.97;100.00
32033;BME280;31720;52.638;9.216;2024-02-21T11:34:58;101205.63;;;10.82;100.00
32033;BME280;31720;52.638;9.216;2024-02-21T11:38:08;101196.03;;;11.00;100.00
32033;BME280;31720;52.638;9.216;2024-02-21T11:41:12;101193.78;;;11.09;100.00
32033;BME280;31720;52.638;9.216;2024-02-21T11:44:13;101182.03;;;10.99;100.00
32033;BME280;31720;52.638;9.216;2024-02-21T11:47:16;101179.00;;;11.07;100.00
32033;BME280;31720;52.638;9.216;2024-02-21T11:50:18;101173.75;;;11.07;100.00
32033;BME280;31720;52.638;9.216;2024-02-21T11:53:20;101161.34;;;10.91;100.00
32033;BME280;31720;52.638;9.216;2024-02-21T11:56:22;101153.28;;;11.13;100.00
32033;BME280;31720;52.638;9.216;2024-02-21T11:59:23;101148.41;;;11.23;100.00
32033;BME280;31720;52.638;9.216;2024-02-21T12:02:26;101147.16;;;11.13;100.00
32033;BME280;31720;52.638;9.216;2024-02-21T12:05:28;101148.22;;;11.09;100.00
32033;BME280;31720;52.638;9.216;2024-02-21T12:08:40;101132.91;;;11.17;100.00
32033;BME280;31720;52.638;9.216;2024-02-21T12:11:43;101132.59;;;11.06;100.00
32033;BME280;31720;52.638;9.216;2024-02-21T12:14:44;101132.00;;;11.18;100.00
32033;BME280;31720;52.638;9.216;2024-02-21T12:17:47;101139.44;;;11.27;100.00
32033;BME280;31720;52.638;9.216;2024-02-21T12:20:48;101126.56;;;11.21;100.00
32033;BME280;31720;52.638;9.216;2024-02-21T12:23:49;101123.31;;;11.33;100.00
32033;BME280;31720;52.638;9.216;2024-02-21T12:26:51;101119.59;;;11.20;100.00
32033;BME280;31720;52.638;9.216;2024-02-21T12:29:53;101119.13;;;11.12;100.00
32033;BME280;31720;52.638;9.216;2024-02-21T12:32:55;101114.50;;;11.34;100.00
32033;BME280;31720;52.638;9.216;2024-02-21T12:35:58;101115.19;;;11.21;100.00
32033;BME280;31720;52.638;9.216;2024-02-21T12:38:59;101105.75;;;11.34;100.00
32033;BME280;31720;52.638;9.216;2024-02-21T12:42:03;101105.66;;;11.35;100.00
32033;BME280;31720;52.638;9.216;2024-02-21T12:45:05;101103.13;;;11.34;100.00
32033;BME280;31720;52.638;9.216;2024-02-21T12:48:08;101100.88;;;11.43;100.00
32033;BME280;31720;52.638;9.216;2024-02-21T12:51:09;101096.63;;;11.41;100.00
32033;BME280;31720;52.638;9.216;2024-02-21T12:54:11;101085.16;;;11.42;100.00
32033;BME280;31720;52.638;9.216;2024-02-21T12:57:12;101074.50;;;11.45;100.00
32033;BME280;31720;52.638;9.216;2024-02-21T13:00:15;101057.84;;;11.45;100.00
32033;BME280;31720;52.638;9.216;2024-02-21T13:03:18;101044.38;;;11.51;100.00
32033;BME280;31720;52.638;9.216;2024-02-21T13:06:20;101039.25;;;11.48;100.00
32033;BME280;31720;52.638;9.216;2024-02-21T13:09:21;101042.06;;;11.45;100.00
32033;BME280;31720;52.638;9.216;2024-02-21T13:12:23;101031.91;;;11.54;100.00
32033;BME280;31720;52.638;9.216;2024-02-21T13:15:26;101025.78;;;11.54;100.00
32033;BME280;31720;52.638;9.216;2024-02-21T13:18:29;101022.47;;;11.50;100.00
32033;BME280;31720;52.638;9.216;2024-02-21T13:21:32;101013.28;;;11.41;100.00
32033;BME280;31720;52.638;9.216;2024-02-21T13:24:34;101013.38;;;11.56;100.00
32033;BME280;31720;52.638;9.216;2024-02-21T13:27:35;100999.13;;;11.60;100.00
32033;BME280;31720;52.638;9.216;2024-02-21T13:30:36;100980.00;;;11.56;100.00
32033;BME280;31720;52.638;9.216;2024-02-21T13:33:39;100964.81;;;11.61;100.00
32033;BME280;31720;52.638;9.216;2024-02-21T13:36:40;100945.03;;;11.54;100.00
32033;BME280;31720;52.638;9.216;2024-02-21T13:39:42;100940.44;;;11.58;100.00
32033;BME280;31720;52.638;9.216;2024-02-21T13:42:43;100935.69;;;11.49;100.00
32033;BME280;31720;52.638;9.216;2024-02-21T13:45:55;100935.78;;;11.47;100.00
32033;BME280;31720;52.638;9.216;2024-02-21T13:49:03;100924.31;;;11.48;100.00
32033;BME280;31720;52.638;9.216;2024-02-21T13:52:05;100923.88;;;11.40;100.00
32033;BME280;31720;52.638;9.216;2024-02-21T13:55:07;100922.25;;;11.37;100.00
32033;BME280;31720;52.638;9.216;2024-02-21T13:58:09;100917.66;;;11.25;100.00
32033;BME280;31720;52.638;9.216;2024-02-21T14:01:10;100906.47;;;11.37;100.00
32033;BME280;31720;52.638;9.216;2024-02-21T14:04:13;100890.00;;;11.34;100.00
32033;BME280;31720;52.638;9.216;2024-02-21T14:07:14;100878.63;;;11.33;100.00
32033;BME280;31720;52.638;9.216;2024-02-21T14:10:17;100850.44;;;11.35;100.00
32033;BME280;31720;52.638;9.216;2024-02-21T14:13:18;100841.53;;;11.22;100.00
32033;BME280;31720;52.638;9.216;2024-02-21T14:16:20;100835.84;;;11.14;100.00
32033;BME280;31720;52.638;9.216;2024-02-21T14:19:23;100825.13;;;11.17;100.00
32033;BME280;31720;52.638;9.216;2024-02-21T14:22:24;100811.22;;;11.15;100.00
32033;BME280;31720;52.638;9.216;2024-02-21T14:25:26;100796.81;;;11.22;100.00
32033;BME280;31720;52.638;9.216;2024-02-21T14:28:27;100838.91;;;11.22;100.00
32033;BME280;31720;52.638;9.216;2024-02-21T14:31:29;100806.41;;;11.23;100.00
32033;BME280;31720;52.638;9.216;2024-02-21T14:34:33;100807.94;;;11.27;100.00
32033;BME280;31720;52.638;9.216;2024-02-21T14:37:35;100797.66;;;11.23;100.00
32033;BME280;31720;52.638;9.216;2024-02-21T14:40:37;100791.19;;;11.12;100.00
32033;BME280;31720;52.638;9.216;2024-02-21T14:43:38;100781.56;;;11.13;100.00
32033;BME280;31720;52.638;9.216;2024-02-21T14:46:40;100783.56;;;11.08;100.00
32033;BME280;31720;52.638;9.216;2024-02-21T14:49:42;100751.34;;;11.04;100.00
32033;BME280;31720;52.638;9.216;2024-02-21T14:52:44;100797.41;;;11.11;100.00
32033;BME280;31720;52.638;9.216;2024-02-21T14:55:45;100771.19;;;11.10;100.00
32033;BME280;31720;52.638;9.216;2024-02-21T14:58:47;100766.78;;;11.10;100.00
32033;BME280;31720;52.638;9.216;2024-02-21T15:01:48;100759.81;;;11.09;100.00
32033;BME280;31720;52.638;9.216;2024-02-21T15:04:51;100734.84;;;11.16;100.00
32033;BME280;31720;52.638;9.216;2024-02-21T15:07:52;100731.31;;;11.17;100.00
32033;BME280;31720;52.638;9.216;2024-02-21T15:10:54;100736.47;;;11.19;100.00
32033;BME280;31720;52.638;9.216;2024-02-21T15:13:55;100721.06;;;11.13;100.00
32033;BME280;31720;52.638;9.216;2024-02-21T15:16:57;100709.28;;;11.04;100.00
32033;BME280;31720;52.638;9.216;2024-02-21T15:19:59;100712.66;;;11.06;100.00
32033;BME280;31720;52.638;9.216;2024-02-21T15:23:01;100703.22;;;11.02;100.00
32033;BME280;31720;52.638;9.216;2024-02-21T15:26:04;100701.97;;;11.09;100.00
32033;BME280;31720;52.638;9.216;2024-02-21T15:29:06;100696.78;;;11.08;100.00
32033;BME280;31720;52.638;9.216;2024-02-21T15:32:07;100687.72;;;10.98;100.00
32033;BME280;31720;52.638;9.216;2024-02-21T15:35:11;100675.50;;;10.97;100.00
32033;BME280;31720;52.638;9.216;2024-02-21T15:38:12;100656.25;;;10.96;100.00
32033;BME280;31720;52.638;9.216;2024-02-21T15:41:13;100645.84;;;10.95;100.00
32033;BME280;31720;52.638;9.216;2024-02-21T15:44:15;100645.66;;;10.82;100.00
32033;BME280;31720;52.638;9.216;2024-02-21T15:47:16;100652.72;;;10.81;100.00